sensor_id;sensor_type;location;lat;lon;timestamp;P1;durP1;ratioP1;P2;durP2;ratioP2
47764;SDS011;33529;49.242;8.670;2022-08-18T00:01:09;5.35;;;4.28;;
47764;SDS011;33529;49.242;8.670;2022-08-18T00:03:40;4.93;;;4.40;;
47764;SDS011;33529;49.242;8.670;2022-08-18T00:06:24;5.97;;;5.03;;
47764;SDS011;33529;49.242;8.670;2022-08-18T00:08:59;6.40;;;5.38;;
47764;SDS011;33529;49.242;8.670;2022-08-18T00:11:29;6.35;;;4.82;;
47764;SDS011;33529;49.242;8.670;2022-08-18T00:14:09;5.35;;;4.30;;
47764;SDS011;33529;49.242;8.670;2022-08-18T00:16:47;8.18;;;5.40;;
47764;SDS011;33529;49.242;8.670;2022-08-18T00:19:14;5.43;;;4.60;;
47764;SDS011;33529;49.242;8.670;2022-08-18T00:21:41;6.35;;;4.85;;
47764;SDS011;33529;49.242;8.670;2022-08-18T00:24:08;6.30;;;4.72;;
47764;SDS011;33529;49.242;8.670;2022-08-18T00:26:35;5.47;;;4.82;;
47764;SDS011;33529;49.242;8.670;2022-08-18T00:29:02;5.75;;;4.45;;
47764;SDS011;33529;49.242;8.670;2022-08-18T00:31:29;8.45;;;5.25;;
47764;SDS011;33529;49.242;8.670;2022-08-18T00:33:56;5.28;;;4.53;;
47764;SDS011;33529;49.242;8.670;2022-08-18T00:36:24;6.20;;;5.43;;
47764;SDS011;33529;49.242;8.670;2022-08-18T00:38:51;5.38;;;4.40;;
47764;SDS011;33529;49.242;8.670;2022-08-18T00:41:18;5.88;;;4.90;;
47764;SDS011;33529;49.242;8.670;2022-08-18T00:43:47;5.88;;;4.55;;
47764;SDS011;33529;49.242;8.670;2022-08-18T00:48:46;5.88;;;5.28;;
47764;SDS011;33529;49.242;8.670;2022-08-18T00:56:20;6.32;;;4.90;;
47764;SDS011;33529;49.242;8.670;2022-08-18T00:58:58;6.07;;;4.95;;
47764;SDS011;33529;49.242;8.670;2022-08-18T01:01:30;5.20;;;4.70;;
47764;SDS011;33529;49.242;8.670;2022-08-18T01:04:05;5.85;;;5.25;;
47764;SDS011;33529;49.242;8.670;2022-08-18T01:09:04;6.35;;;5.00;;
47764;SDS011;33529;49.242;8.670;2022-08-18T01:11:34;5.25;;;4.50;;
47764;SDS011;33529;49.242;8.670;2022-08-18T01:14:07;6.45;;;4.65;;
47764;SDS011;33529;49.242;8.670;2022-08-18T01:16:34;6.80;;;4.45;;
47764;SDS011;33529;49.242;8.670;2022-08-18T01:19:23;5.38;;;4.88;;
47764;SDS011;33529;49.242;8.670;2022-08-18T01:22:17;5.00;;;4.47;;
47764;SDS011;33529;49.242;8.670;2022-08-18T01:24:50;5.18;;;4.38;;
47764;SDS011;33529;49.242;8.670;2022-08-18T01:27:39;6.03;;;4.78;;
47764;SDS011;33529;49.242;8.670;2022-08-18T01:30:08;5.85;;;4.38;;
47764;SDS011;33529;49.242;8.670;2022-08-18T01:32:41;5.75;;;4.35;;
47764;SDS011;33529;49.242;8.670;2022-08-18T01:35:11;6.95;;;4.43;;
47764;SDS011;33529;49.242;8.670;2022-08-18T01:37:40;5.85;;;4.63;;
47764;SDS011;33529;49.242;8.670;2022-08-18T01:40:08;6.00;;;4.82;;
47764;SDS011;33529;49.242;8.670;2022-08-18T01:42:57;4.53;;;3.92;;
47764;SDS011;33529;49.242;8.670;2022-08-18T01:45:24;5.20;;;4.43;;
47764;SDS011;33529;49.242;8.670;2022-08-18T01:47:51;7.25;;;4.20;;
47764;SDS011;33529;49.242;8.670;2022-08-18T01:54:24;4.32;;;3.80;;
47764;SDS011;33529;49.242;8.670;2022-08-18T01:56:55;5.40;;;4.47;;
47764;SDS011;33529;49.242;8.670;2022-08-18T01:59:23;5.82;;;4.65;;
47764;SDS011;33529;49.242;8.670;2022-08-18T02:01:51;5.38;;;4.30;;
47764;SDS011;33529;49.242;8.670;2022-08-18T02:04:22;5.75;;;4.10;;
47764;SDS011;33529;49.242;8.670;2022-08-18T02:09:31;5.70;;;4.68;;
47764;SDS011;33529;49.242;8.670;2022-08-18T02:11:59;5.82;;;4.65;;
47764;SDS011;33529;49.242;8.670;2022-08-18T02:14:26;4.47;;;3.83;;
47764;SDS011;33529;49.242;8.670;2022-08-18T02:16:57;5.60;;;4.60;;
47764;SDS011;33529;49.242;8.670;2022-08-18T02:19:31;5.50;;;4.90;;
47764;SDS011;33529;49.242;8.670;2022-08-18T02:22:25;5.70;;;4.13;;
47764;SDS011;33529;49.242;8.670;2022-08-18T02:24:52;5.03;;;4.53;;
47764;SDS011;33529;49.242;8.670;2022-08-18T02:27:18;4.97;;;4.20;;
47764;SDS011;33529;49.242;8.670;2022-08-18T02:29:45;7.97;;;5.15;;
47764;SDS011;33529;49.242;8.670;2022-08-18T02:32:12;5.07;;;4.57;;
47764;SDS011;33529;49.242;8.670;2022-08-18T02:34:39;6.90;;;4.68;;
47764;SDS011;33529;49.242;8.670;2022-08-18T02:37:07;5.30;;;4.32;;
47764;SDS011;33529;49.242;8.670;2022-08-18T02:39:40;5.20;;;4.70;;
47764;SDS011;33529;49.242;8.670;2022-08-18T02:42:07;5.20;;;4.65;;
47764;SDS011;33529;49.242;8.670;2022-08-18T02:44:34;6.53;;;4.78;;
47764;SDS011;33529;49.242;8.670;2022-08-18T02:47:01;5.78;;;4.70;;
47764;SDS011;33529;49.242;8.670;2022-08-18T02:49:28;5.95;;;4.75;;
47764;SDS011;33529;49.242;8.670;2022-08-18T02:51:54;5.38;;;4.47;;
47764;SDS011;33529;49.242;8.670;2022-08-18T02:54:22;6.95;;;5.20;;
47764;SDS011;33529;49.242;8.670;2022-08-18T02:56:50;5.43;;;4.65;;
47764;SDS011;33529;49.242;8.670;2022-08-18T02:59:22;5.63;;;4.07;;
47764;SDS011;33529;49.242;8.670;2022-08-18T03:01:53;5.03;;;3.90;;
47764;SDS011;33529;49.242;8.670;2022-08-18T03:04:22;5.20;;;4.43;;
47764;SDS011;33529;49.242;8.670;2022-08-18T03:06:55;5.53;;;4.93;;
47764;SDS011;33529;49.242;8.670;2022-08-18T03:09:23;5.20;;;4.45;;
47764;SDS011;33529;49.242;8.670;2022-08-18T03:11:50;5.60;;;4.10;;
47764;SDS011;33529;49.242;8.670;2022-08-18T03:14:18;4.88;;;4.35;;
47764;SDS011;33529;49.242;8.670;2022-08-18T03:16:45;5.80;;;4.18;;
47764;SDS011;33529;49.242;8.670;2022-08-18T03:19:20;5.68;;;4.72;;
47764;SDS011;33529;49.242;8.670;2022-08-18T03:21:51;4.45;;;3.78;;
47764;SDS011;33529;49.242;8.670;2022-08-18T03:24:25;4.90;;;4.30;;
47764;SDS011;33529;49.242;8.670;2022-08-18T03:26:53;5.95;;;4.65;;
47764;SDS011;33529;49.242;8.670;2022-08-18T03:29:24;5.00;;;4.32;;
47764;SDS011;33529;49.242;8.670;2022-08-18T03:31:58;5.88;;;4.78;;
47764;SDS011;33529;49.242;8.670;2022-08-18T03:36:56;5.53;;;4.50;;
47764;SDS011;33529;49.242;8.670;2022-08-18T03:39:23;5.30;;;4.80;;
47764;SDS011;33529;49.242;8.670;2022-08-18T03:41:53;5.75;;;5.15;;
47764;SDS011;33529;49.242;8.670;2022-08-18T03:44:30;5.90;;;4.53;;
47764;SDS011;33529;49.242;8.670;2022-08-18T03:46:58;6.80;;;4.72;;
47764;SDS011;33529;49.242;8.670;2022-08-18T03:49:28;5.50;;;4.93;;
47764;SDS011;33529;49.242;8.670;2022-08-18T03:51:56;5.75;;;5.15;;
47764;SDS011;33529;49.242;8.670;2022-08-18T03:54:26;6.40;;;5.10;;
47764;SDS011;33529;49.242;8.670;2022-08-18T03:56:54;4.72;;;4.22;;
47764;SDS011;33529;49.242;8.670;2022-08-18T03:59:22;5.15;;;4.65;;
47764;SDS011;33529;49.242;8.670;2022-08-18T04:01:50;6.22;;;5.05;;
47764;SDS011;33529;49.242;8.670;2022-08-18T04:04:23;6.13;;;4.90;;
47764;SDS011;33529;49.242;8.670;2022-08-18T04:06:52;5.72;;;5.13;;
47764;SDS011;33529;49.242;8.670;2022-08-18T04:09:25;5.70;;;4.60;;
47764;SDS011;33529;49.242;8.670;2022-08-18T04:11:54;5.72;;;5.15;;
47764;SDS011;33529;49.242;8.670;2022-08-18T04:14:23;5.25;;;4.75;;
47764;SDS011;33529;49.242;8.670;2022-08-18T04:16:55;5.32;;;4.78;;
47764;SDS011;33529;49.242;8.670;2022-08-18T04:19:23;5.55;;;5.00;;
47764;SDS011;33529;49.242;8.670;2022-08-18T04:21:53;5.45;;;4.72;;
47764;SDS011;33529;49.242;8.670;2022-08-18T04:24:22;7.57;;;5.35;;
47764;SDS011;33529;49.242;8.670;2022-08-18T04:26:51;7.18;;;5.97;;
47764;SDS011;33529;49.242;8.670;2022-08-18T04:29:19;6.03;;;5.05;;
47764;SDS011;33529;49.242;8.670;2022-08-18T04:31:49;6.10;;;5.50;;
47764;SDS011;33529;49.242;8.670;2022-08-18T04:34:17;6.00;;;5.38;;
47764;SDS011;33529;49.242;8.670;2022-08-18T04:36:46;6.43;;;5.70;;
47764;SDS011;33529;49.242;8.670;2022-08-18T04:39:13;6.75;;;6.05;;
47764;SDS011;33529;49.242;8.670;2022-08-18T04:41:41;7.35;;;6.07;;
47764;SDS011;33529;49.242;8.670;2022-08-18T04:44:09;6.47;;;5.45;;
47764;SDS011;33529;49.242;8.670;2022-08-18T04:46:38;6.07;;;5.47;;
47764;SDS011;33529;49.242;8.670;2022-08-18T04:49:07;7.15;;;5.82;;
47764;SDS011;33529;49.242;8.670;2022-08-18T04:51:38;7.40;;;5.80;;
47764;SDS011;33529;49.242;8.670;2022-08-18T04:54:27;8.45;;;5.82;;
47764;SDS011;33529;49.242;8.670;2022-08-18T04:56:54;5.72;;;5.13;;
47764;SDS011;33529;49.242;8.670;2022-08-18T04:59:20;6.25;;;5.40;;
47764;SDS011;33529;49.242;8.670;2022-08-18T05:01:47;7.25;;;6.22;;
47764;SDS011;33529;49.242;8.670;2022-08-18T05:04:15;7.28;;;5.95;;
47764;SDS011;33529;49.242;8.670;2022-08-18T05:06:43;6.22;;;5.63;;
47764;SDS011;33529;49.242;8.670;2022-08-18T05:09:11;7.25;;;6.00;;
47764;SDS011;33529;49.242;8.670;2022-08-18T05:11:47;7.07;;;5.80;;
47764;SDS011;33529;49.242;8.670;2022-08-18T05:14:15;6.28;;;5.57;;
47764;SDS011;33529;49.242;8.670;2022-08-18T05:16:42;7.57;;;6.78;;
47764;SDS011;33529;49.242;8.670;2022-08-18T05:19:15;6.97;;;5.85;;
47764;SDS011;33529;49.242;8.670;2022-08-18T05:21:55;6.63;;;5.95;;
47764;SDS011;33529;49.242;8.670;2022-08-18T05:24:26;6.57;;;5.95;;
47764;SDS011;33529;49.242;8.670;2022-08-18T05:27:02;9.15;;;6.40;;
47764;SDS011;33529;49.242;8.670;2022-08-18T05:29:29;9.07;;;6.13;;
47764;SDS011;33529;49.242;8.670;2022-08-18T05:32:10;7.15;;;6.28;;
47764;SDS011;33529;49.242;8.670;2022-08-18T05:34:57;10.25;;;6.97;;
47764;SDS011;33529;49.242;8.670;2022-08-18T05:37:30;16.95;;;6.90;;
47764;SDS011;33529;49.242;8.670;2022-08-18T05:40:07;9.88;;;6.32;;
47764;SDS011;33529;49.242;8.670;2022-08-18T05:42:38;13.80;;;7.07;;
47764;SDS011;33529;49.242;8.670;2022-08-18T05:45:07;12.30;;;6.93;;
47764;SDS011;33529;49.242;8.670;2022-08-18T05:47:37;126.85;;;17.25;;
47764;SDS011;33529;49.242;8.670;2022-08-18T05:50:15;30.77;;;11.50;;
47764;SDS011;33529;49.242;8.670;2022-08-18T05:55:22;6.25;;;5.40;;
47764;SDS011;33529;49.242;8.670;2022-08-18T05:58:15;11.93;;;6.60;;
47764;SDS011;33529;49.242;8.670;2022-08-18T06:00:52;7.18;;;6.07;;
47764;SDS011;33529;49.242;8.670;2022-08-18T06:03:27;6.50;;;5.80;;
47764;SDS011;33529;49.242;8.670;2022-08-18T06:06:14;7.13;;;6.18;;
47764;SDS011;33529;49.242;8.670;2022-08-18T06:11:42;8.48;;;5.88;;
47764;SDS011;33529;49.242;8.670;2022-08-18T06:14:09;7.80;;;6.43;;
47764;SDS011;33529;49.242;8.670;2022-08-18T06:33:45;9.07;;;6.55;;
47764;SDS011;33529;49.242;8.670;2022-08-18T06:39:34;11.65;;;6.68;;
47764;SDS011;33529;49.242;8.670;2022-08-18T06:42:10;9.00;;;6.45;;
47764;SDS011;33529;49.242;8.670;2022-08-18T06:47:13;43.42;;;10.45;;
47764;SDS011;33529;49.242;8.670;2022-08-18T06:50:06;6.22;;;5.60;;
47764;SDS011;33529;49.242;8.670;2022-08-18T06:52:57;9.43;;;6.13;;
47764;SDS011;33529;49.242;8.670;2022-08-18T06:58:06;8.05;;;6.32;;
47764;SDS011;33529;49.242;8.670;2022-08-18T07:03:22;7.28;;;6.57;;
47764;SDS011;33529;49.242;8.670;2022-08-18T07:06:03;9.90;;;6.43;;
47764;SDS011;33529;49.242;8.670;2022-08-18T07:08:39;6.72;;;5.95;;
47764;SDS011;33529;49.242;8.670;2022-08-18T07:11:24;6.97;;;6.30;;
47764;SDS011;33529;49.242;8.670;2022-08-18T07:13:54;8.38;;;6.35;;
47764;SDS011;33529;49.242;8.670;2022-08-18T07:16:41;7.07;;;6.15;;
47764;SDS011;33529;49.242;8.670;2022-08-18T07:19:27;9.05;;;7.38;;
47764;SDS011;33529;49.242;8.670;2022-08-18T07:22:05;7.13;;;6.03;;
47764;SDS011;33529;49.242;8.670;2022-08-18T07:35:16;9.32;;;6.13;;
47764;SDS011;33529;49.242;8.670;2022-08-18T07:40:48;8.02;;;6.40;;
47764;SDS011;33529;49.242;8.670;2022-08-18T07:46:15;8.30;;;6.20;;
47764;SDS011;33529;49.242;8.670;2022-08-18T07:48:48;10.18;;;5.85;;
47764;SDS011;33529;49.242;8.670;2022-08-18T07:51:22;12.25;;;7.18;;
47764;SDS011;33529;49.242;8.670;2022-08-18T07:56:56;8.05;;;6.22;;
47764;SDS011;33529;49.242;8.670;2022-08-18T08:02:18;14.23;;;6.70;;
47764;SDS011;33529;49.242;8.670;2022-08-18T08:10:48;12.68;;;7.03;;
47764;SDS011;33529;49.242;8.670;2022-08-18T08:16:36;7.63;;;6.60;;
47764;SDS011;33529;49.242;8.670;2022-08-18T08:22:30;8.63;;;6.68;;
47764;SDS011;33529;49.242;8.670;2022-08-18T08:25:05;10.07;;;6.70;;
47764;SDS011;33529;49.242;8.670;2022-08-18T08:28:16;11.65;;;7.20;;
47764;SDS011;33529;49.242;8.670;2022-08-18T08:31:13;8.18;;;6.68;;
47764;SDS011;33529;49.242;8.670;2022-08-18T08:34:19;8.93;;;7.57;;
47764;SDS011;33529;49.242;8.670;2022-08-18T08:42:06;10.57;;;8.40;;
47764;SDS011;33529;49.242;8.670;2022-08-18T08:44:55;9.15;;;8.05;;
47764;SDS011;33529;49.242;8.670;2022-08-18T08:50:16;7.88;;;7.13;;
47764;SDS011;33529;49.242;8.670;2022-08-18T08:52:51;9.05;;;7.40;;
47764;SDS011;33529;49.242;8.670;2022-08-18T08:55:43;12.85;;;10.05;;
47764;SDS011;33529;49.242;8.670;2022-08-18T09:00:52;8.43;;;7.30;;
47764;SDS011;33529;49.242;8.670;2022-08-18T09:03:55;9.43;;;8.13;;
47764;SDS011;33529;49.242;8.670;2022-08-18T09:12:19;12.68;;;8.15;;
47764;SDS011;33529;49.242;8.670;2022-08-18T09:15:25;10.23;;;8.43;;
47764;SDS011;33529;49.242;8.670;2022-08-18T09:24:13;15.77;;;12.80;;
47764;SDS011;33529;49.242;8.670;2022-08-18T09:26:50;19.15;;;13.32;;
47764;SDS011;33529;49.242;8.670;2022-08-18T09:29:48;15.25;;;13.55;;
47764;SDS011;33529;49.242;8.670;2022-08-18T09:37:19;15.85;;;14.15;;
47764;SDS011;33529;49.242;8.670;2022-08-18T09:39:54;18.13;;;16.42;;
47764;SDS011;33529;49.242;8.670;2022-08-18T09:43:36;36.03;;;21.25;;
47764;SDS011;33529;49.242;8.670;2022-08-18T09:46:48;14.18;;;12.60;;
47764;SDS011;33529;49.242;8.670;2022-08-18T09:51:53;20.08;;;18.08;;
47764;SDS011;33529;49.242;8.670;2022-08-18T09:56:56;20.20;;;18.25;;
47764;SDS011;33529;49.242;8.670;2022-08-18T10:02:04;17.25;;;15.52;;
47764;SDS011;33529;49.242;8.670;2022-08-18T10:04:47;18.35;;;15.73;;
47764;SDS011;33529;49.242;8.670;2022-08-18T10:07:32;18.38;;;15.38;;
47764;SDS011;33529;49.242;8.670;2022-08-18T10:10:17;18.63;;;16.13;;
47764;SDS011;33529;49.242;8.670;2022-08-18T10:23:45;19.77;;;14.63;;
47764;SDS011;33529;49.242;8.670;2022-08-18T10:26:56;14.93;;;13.43;;
47764;SDS011;33529;49.242;8.670;2022-08-18T10:34:36;16.40;;;14.68;;
47764;SDS011;33529;49.242;8.670;2022-08-18T10:37:24;17.08;;;14.05;;
47764;SDS011;33529;49.242;8.670;2022-08-18T10:42:39;16.15;;;14.55;;
47764;SDS011;33529;49.242;8.670;2022-08-18T10:45:20;16.15;;;14.52;;
47764;SDS011;33529;49.242;8.670;2022-08-18T10:50:27;15.70;;;13.70;;
47764;SDS011;33529;49.242;8.670;2022-08-18T10:53:04;18.35;;;15.13;;
47764;SDS011;33529;49.242;8.670;2022-08-18T11:04:40;15.18;;;13.68;;
47764;SDS011;33529;49.242;8.670;2022-08-18T11:07:26;18.50;;;15.63;;
47764;SDS011;33529;49.242;8.670;2022-08-18T11:09:59;18.13;;;16.10;;
47764;SDS011;33529;49.242;8.670;2022-08-18T11:18:35;15.38;;;13.88;;
47764;SDS011;33529;49.242;8.670;2022-08-18T11:31:54;15.38;;;13.80;;
47764;SDS011;33529;49.242;8.670;2022-08-18T11:34:30;17.08;;;15.38;;
47764;SDS011;33529;49.242;8.670;2022-08-18T11:39:50;15.07;;;13.63;;
47764;SDS011;33529;49.242;8.670;2022-08-18T11:42:25;16.83;;;14.15;;
47764;SDS011;33529;49.242;8.670;2022-08-18T11:45:00;16.23;;;14.50;;
47764;SDS011;33529;49.242;8.670;2022-08-18T11:47:30;15.18;;;13.77;;
47764;SDS011;33529;49.242;8.670;2022-08-18T11:50:04;21.23;;;15.40;;
47764;SDS011;33529;49.242;8.670;2022-08-18T11:52:49;37.15;;;17.50;;
47764;SDS011;33529;49.242;8.670;2022-08-18T11:55:21;31.83;;;16.65;;
47764;SDS011;33529;49.242;8.670;2022-08-18T11:57:55;140.57;;;29.52;;
47764;SDS011;33529;49.242;8.670;2022-08-18T12:03:28;16.38;;;14.73;;
47764;SDS011;33529;49.242;8.670;2022-08-18T12:05:57;16.30;;;14.48;;
47764;SDS011;33529;49.242;8.670;2022-08-18T12:09:20;56.20;;;20.42;;
47764;SDS011;33529;49.242;8.670;2022-08-18T12:12:18;18.42;;;16.05;;
47764;SDS011;33529;49.242;8.670;2022-08-18T12:14:59;15.32;;;13.82;;
47764;SDS011;33529;49.242;8.670;2022-08-18T12:17:42;20.92;;;15.68;;
47764;SDS011;33529;49.242;8.670;2022-08-18T12:20:18;18.83;;;14.88;;
47764;SDS011;33529;49.242;8.670;2022-08-18T12:22:45;42.30;;;16.33;;
47764;SDS011;33529;49.242;8.670;2022-08-18T12:25:15;15.82;;;14.13;;
47764;SDS011;33529;49.242;8.670;2022-08-18T12:28:03;16.33;;;14.63;;
47764;SDS011;33529;49.242;8.670;2022-08-18T12:30:36;16.58;;;14.85;;
47764;SDS011;33529;49.242;8.670;2022-08-18T12:33:07;15.20;;;13.10;;
47764;SDS011;33529;49.242;8.670;2022-08-18T12:35:38;26.88;;;11.60;;
47764;SDS011;33529;49.242;8.670;2022-08-18T12:38:07;14.02;;;12.32;;
47764;SDS011;33529;49.242;8.670;2022-08-18T12:40:39;11.20;;;10.02;;
47764;SDS011;33529;49.242;8.670;2022-08-18T12:43:06;10.63;;;9.63;;
47764;SDS011;33529;49.242;8.670;2022-08-18T12:45:34;10.68;;;9.57;;
47764;SDS011;33529;49.242;8.670;2022-08-18T12:48:03;14.50;;;12.63;;
47764;SDS011;33529;49.242;8.670;2022-08-18T12:50:32;11.43;;;9.40;;
47764;SDS011;33529;49.242;8.670;2022-08-18T12:53:20;13.02;;;9.93;;
47764;SDS011;33529;49.242;8.670;2022-08-18T12:56:03;11.10;;;10.00;;
47764;SDS011;33529;49.242;8.670;2022-08-18T12:58:52;10.60;;;9.27;;
47764;SDS011;33529;49.242;8.670;2022-08-18T13:01:20;12.43;;;10.98;;
47764;SDS011;33529;49.242;8.670;2022-08-18T13:03:49;11.45;;;9.77;;
47764;SDS011;33529;49.242;8.670;2022-08-18T13:06:38;9.13;;;8.25;;
47764;SDS011;33529;49.242;8.670;2022-08-18T13:09:26;11.55;;;9.90;;
47764;SDS011;33529;49.242;8.670;2022-08-18T13:12:17;10.73;;;9.52;;
47764;SDS011;33529;49.242;8.670;2022-08-18T13:14:45;11.02;;;10.02;;
47764;SDS011;33529;49.242;8.670;2022-08-18T13:17:13;10.93;;;8.70;;
47764;SDS011;33529;49.242;8.670;2022-08-18T13:19:58;11.98;;;10.88;;
47764;SDS011;33529;49.242;8.670;2022-08-18T13:22:33;10.07;;;9.18;;
47764;SDS011;33529;49.242;8.670;2022-08-18T13:25:01;11.13;;;9.70;;
47764;SDS011;33529;49.242;8.670;2022-08-18T13:27:30;10.83;;;9.67;;
47764;SDS011;33529;49.242;8.670;2022-08-18T13:30:02;9.57;;;8.65;;
47764;SDS011;33529;49.242;8.670;2022-08-18T13:32:51;9.75;;;8.82;;
47764;SDS011;33529;49.242;8.670;2022-08-18T13:35:26;10.07;;;9.07;;
47764;SDS011;33529;49.242;8.670;2022-08-18T13:38:03;10.02;;;8.15;;
47764;SDS011;33529;49.242;8.670;2022-08-18T13:40:44;9.85;;;8.88;;
47764;SDS011;33529;49.242;8.670;2022-08-18T13:43:14;9.23;;;7.82;;
47764;SDS011;33529;49.242;8.670;2022-08-18T13:45:43;9.95;;;8.70;;
47764;SDS011;33529;49.242;8.670;2022-08-18T13:48:17;9.93;;;8.93;;
47764;SDS011;33529;49.242;8.670;2022-08-18T13:50:44;8.45;;;7.65;;
47764;SDS011;33529;49.242;8.670;2022-08-18T13:53:12;8.20;;;7.38;;
47764;SDS011;33529;49.242;8.670;2022-08-18T13:55:45;9.50;;;7.78;;
47764;SDS011;33529;49.242;8.670;2022-08-18T13:58:11;7.25;;;6.28;;
47764;SDS011;33529;49.242;8.670;2022-08-18T14:00:47;7.85;;;6.65;;
47764;SDS011;33529;49.242;8.670;2022-08-18T14:03:19;8.27;;;6.78;;
47764;SDS011;33529;49.242;8.670;2022-08-18T14:06:08;8.10;;;7.30;;
47764;SDS011;33529;49.242;8.670;2022-08-18T14:08:38;8.77;;;6.72;;
47764;SDS011;33529;49.242;8.670;2022-08-18T14:11:06;7.90;;;6.95;;
47764;SDS011;33529;49.242;8.670;2022-08-18T14:13:34;7.63;;;6.85;;
47764;SDS011;33529;49.242;8.670;2022-08-18T14:16:09;8.48;;;6.28;;
47764;SDS011;33529;49.242;8.670;2022-08-18T14:18:45;11.50;;;6.90;;
47764;SDS011;33529;49.242;8.670;2022-08-18T14:21:37;11.07;;;7.00;;
47764;SDS011;33529;49.242;8.670;2022-08-18T14:24:26;12.93;;;7.40;;
47764;SDS011;33529;49.242;8.670;2022-08-18T14:27:14;14.43;;;7.65;;
47764;SDS011;33529;49.242;8.670;2022-08-18T14:29:52;8.20;;;7.13;;
47764;SDS011;33529;49.242;8.670;2022-08-18T14:32:20;8.05;;;7.10;;
47764;SDS011;33529;49.242;8.670;2022-08-18T14:34:56;15.45;;;6.70;;
47764;SDS011;33529;49.242;8.670;2022-08-18T14:37:46;8.32;;;7.10;;
47764;SDS011;33529;49.242;8.670;2022-08-18T14:40:13;9.10;;;7.45;;
47764;SDS011;33529;49.242;8.670;2022-08-18T14:42:41;126.95;;;20.83;;
47764;SDS011;33529;49.242;8.670;2022-08-18T14:45:21;8.27;;;7.47;;
47764;SDS011;33529;49.242;8.670;2022-08-18T14:48:00;8.63;;;7.68;;
47764;SDS011;33529;49.242;8.670;2022-08-18T14:50:36;8.73;;;7.93;;
47764;SDS011;33529;49.242;8.670;2022-08-18T14:53:14;19.42;;;10.50;;
47764;SDS011;33529;49.242;8.670;2022-08-18T14:55:44;9.33;;;8.43;;
47764;SDS011;33529;49.242;8.670;2022-08-18T14:58:21;16.90;;;9.73;;
47764;SDS011;33529;49.242;8.670;2022-08-18T15:00:53;10.50;;;9.48;;
47764;SDS011;33529;49.242;8.670;2022-08-18T15:03:22;9.07;;;8.27;;
47764;SDS011;33529;49.242;8.670;2022-08-18T15:05:57;10.38;;;9.20;;
47764;SDS011;33529;49.242;8.670;2022-08-18T15:08:25;10.18;;;9.18;;
47764;SDS011;33529;49.242;8.670;2022-08-18T15:10:54;10.23;;;9.18;;
47764;SDS011;33529;49.242;8.670;2022-08-18T15:13:23;11.70;;;10.23;;
47764;SDS011;33529;49.242;8.670;2022-08-18T15:15:52;12.63;;;11.43;;
47764;SDS011;33529;49.242;8.670;2022-08-18T15:18:27;12.45;;;11.35;;
47764;SDS011;33529;49.242;8.670;2022-08-18T15:20:54;13.00;;;11.80;;
47764;SDS011;33529;49.242;8.670;2022-08-18T15:23:59;12.68;;;11.40;;
47764;SDS011;33529;49.242;8.670;2022-08-18T15:26:46;12.52;;;11.32;;
47764;SDS011;33529;49.242;8.670;2022-08-18T15:29:17;12.45;;;11.30;;
47764;SDS011;33529;49.242;8.670;2022-08-18T15:31:48;13.10;;;11.50;;
47764;SDS011;33529;49.242;8.670;2022-08-18T15:34:16;46.35;;;16.02;;
47764;SDS011;33529;49.242;8.670;2022-08-18T15:36:46;17.60;;;12.98;;
47764;SDS011;33529;49.242;8.670;2022-08-18T15:39:13;33.80;;;14.60;;
47764;SDS011;33529;49.242;8.670;2022-08-18T15:41:43;13.45;;;12.15;;
47764;SDS011;33529;49.242;8.670;2022-08-18T15:44:14;15.48;;;14.07;;
47764;SDS011;33529;49.242;8.670;2022-08-18T15:46:43;15.73;;;14.20;;
47764;SDS011;33529;49.242;8.670;2022-08-18T15:49:18;23.92;;;14.32;;
47764;SDS011;33529;49.242;8.670;2022-08-18T15:51:48;13.93;;;12.68;;
47764;SDS011;33529;49.242;8.670;2022-08-18T15:54:17;15.13;;;13.80;;
47764;SDS011;33529;49.242;8.670;2022-08-18T15:56:45;15.23;;;13.82;;
47764;SDS011;33529;49.242;8.670;2022-08-18T15:59:23;14.43;;;13.00;;
47764;SDS011;33529;49.242;8.670;2022-08-18T16:04:36;26.50;;;15.07;;
47764;SDS011;33529;49.242;8.670;2022-08-18T16:07:05;185.43;;;43.33;;
47764;SDS011;33529;49.242;8.670;2022-08-18T16:09:35;14.90;;;13.43;;
47764;SDS011;33529;49.242;8.670;2022-08-18T16:12:02;25.00;;;13.25;;
47764;SDS011;33529;49.242;8.670;2022-08-18T16:14:29;14.57;;;13.20;;
47764;SDS011;33529;49.242;8.670;2022-08-18T16:16:56;17.63;;;13.32;;
47764;SDS011;33529;49.242;8.670;2022-08-18T16:19:23;13.02;;;11.68;;
47764;SDS011;33529;49.242;8.670;2022-08-18T16:21:53;15.25;;;13.73;;
47764;SDS011;33529;49.242;8.670;2022-08-18T16:24:20;16.85;;;13.73;;
47764;SDS011;33529;49.242;8.670;2022-08-18T16:26:48;18.25;;;14.20;;
47764;SDS011;33529;49.242;8.670;2022-08-18T16:29:17;15.38;;;13.80;;
47764;SDS011;33529;49.242;8.670;2022-08-18T16:31:44;12.85;;;11.63;;
47764;SDS011;33529;49.242;8.670;2022-08-18T16:34:11;12.55;;;11.43;;
47764;SDS011;33529;49.242;8.670;2022-08-18T16:36:38;16.05;;;12.15;;
47764;SDS011;33529;49.242;8.670;2022-08-18T16:39:05;96.28;;;19.60;;
47764;SDS011;33529;49.242;8.670;2022-08-18T16:41:34;13.02;;;11.80;;
47764;SDS011;33529;49.242;8.670;2022-08-18T16:44:01;12.77;;;11.50;;
47764;SDS011;33529;49.242;8.670;2022-08-18T16:46:27;12.45;;;10.93;;
47764;SDS011;33529;49.242;8.670;2022-08-18T16:48:55;11.93;;;10.82;;
47764;SDS011;33529;49.242;8.670;2022-08-18T16:51:24;13.00;;;11.65;;
47764;SDS011;33529;49.242;8.670;2022-08-18T16:53:52;13.13;;;11.15;;
47764;SDS011;33529;49.242;8.670;2022-08-18T16:56:23;12.23;;;11.05;;
47764;SDS011;33529;49.242;8.670;2022-08-18T16:58:52;13.65;;;11.50;;
47764;SDS011;33529;49.242;8.670;2022-08-18T17:01:37;11.93;;;10.73;;
47764;SDS011;33529;49.242;8.670;2022-08-18T17:04:24;10.60;;;9.13;;
47764;SDS011;33529;49.242;8.670;2022-08-18T17:06:54;10.43;;;8.98;;
47764;SDS011;33529;49.242;8.670;2022-08-18T17:09:22;10.77;;;9.15;;
47764;SDS011;33529;49.242;8.670;2022-08-18T17:11:49;9.48;;;8.57;;
47764;SDS011;33529;49.242;8.670;2022-08-18T17:14:19;9.73;;;8.73;;
47764;SDS011;33529;49.242;8.670;2022-08-18T17:16:47;10.18;;;8.32;;
47764;SDS011;33529;49.242;8.670;2022-08-18T17:19:20;9.52;;;8.60;;
47764;SDS011;33529;49.242;8.670;2022-08-18T17:21:48;15.60;;;8.88;;
47764;SDS011;33529;49.242;8.670;2022-08-18T17:24:15;9.85;;;8.85;;
47764;SDS011;33529;49.242;8.670;2022-08-18T17:30:10;10.10;;;8.07;;
47764;SDS011;33529;49.242;8.670;2022-08-18T17:32:43;9.07;;;8.18;;
47764;SDS011;33529;49.242;8.670;2022-08-18T17:35:18;10.55;;;8.10;;
47764;SDS011;33529;49.242;8.670;2022-08-18T17:37:59;9.65;;;8.00;;
47764;SDS011;33529;49.242;8.670;2022-08-18T17:40:54;9.48;;;8.48;;
47764;SDS011;33529;49.242;8.670;2022-08-18T17:43:23;9.23;;;8.32;;
47764;SDS011;33529;49.242;8.670;2022-08-18T17:45:57;10.15;;;7.53;;
47764;SDS011;33529;49.242;8.670;2022-08-18T17:48:26;9.05;;;7.97;;
47764;SDS011;33529;49.242;8.670;2022-08-18T17:53:45;233.35;;;31.85;;
47764;SDS011;33529;49.242;8.670;2022-08-18T17:58:48;9.10;;;7.97;;
47764;SDS011;33529;49.242;8.670;2022-08-18T18:01:21;10.55;;;8.95;;
47764;SDS011;33529;49.242;8.670;2022-08-18T18:03:50;11.48;;;8.98;;
47764;SDS011;33529;49.242;8.670;2022-08-18T18:11:34;9.25;;;8.40;;
47764;SDS011;33529;49.242;8.670;2022-08-18T18:17:12;9.48;;;8.57;;
47764;SDS011;33529;49.242;8.670;2022-08-18T18:19:49;9.65;;;8.07;;
47764;SDS011;33529;49.242;8.670;2022-08-18T18:22:24;8.50;;;7.65;;
47764;SDS011;33529;49.242;8.670;2022-08-18T18:24:54;8.75;;;7.95;;
47764;SDS011;33529;49.242;8.670;2022-08-18T18:27:30;9.75;;;8.82;;
47764;SDS011;33529;49.242;8.670;2022-08-18T18:32:57;10.98;;;8.25;;
47764;SDS011;33529;49.242;8.670;2022-08-18T18:38:25;9.07;;;8.10;;
47764;SDS011;33529;49.242;8.670;2022-08-18T18:46:08;12.68;;;9.52;;